Galmey, Missouri
Current Conditions -  °F | °C
As of 2:35 AM on Thursday 27 Nov 2014 (Local Time) from KGLY Reporting Station
Broken Clouds Broken Clouds  
Wind Chill: 22°   Ceiling: 1600
Heat Index: 32°   Visibility: 8mi
Dew Point: 27°   Wind: 15mph
Humidity: 80%   Direction: 320°NW
Pressure: 30.45"   Gusts: NA
Location:  37.9327°N, 93.406°W
Report Text: KGLY 270835Z AUTO 32013KT 8SM BKN016 BKN021 00/M03 A3045 RMK AO2
Loading
Personal Weather Stations






























Interactive Weather Map New forecast layout! Learn more

10-Day Weather Forecast

Advertisements
Track Severe Weather on mobile